M/V Alton St. Amant — WDE7604 — position and weather

sailwx.info

Track history (hours):
 
Tides and Currents Weather Stations Pressure Air Temp Water Temp Dewpoint Dewpoint Depression Visibility Wind Speed Wind Dir Waves Ship Positions

M/V Alton St. Amant

Owner: The Barge Investment Group Five, L.L.C., Harahan, LA. More information available from US FCC via Universal Licensing System and Coast Guard Vessel Documentation Center.

Last reported at 2014-Nov-19 20:24 UTC. Time now 2014-Nov-25 00:37 UTC.
Position N 29°55' W 090°07'.

Length 25 m; draft 2.9 m.

Type: Towing. MMSI: 367395270.

Date/timePositionNaut miles runAvg speedWind from/ knotsBaromVisibWave heightAir tempDewpointWater temp
2014-Nov-19 20:24N 29°55' W 090°07'4 4.4
2014-Nov-19 19:32N 29°57' W 090°04'3 2.5
2014-Nov-19 18:25N 29°56' W 090°00'0 0.0
2014-Nov-19 17:31N 29°56' W 090°00'0 0.0
2014-Nov-19 16:31N 29°56' W 090°00'0 0.0
2014-Nov-19 15:32N 29°56' W 090°00'0 0.0
2014-Nov-19 14:33N 29°56' W 090°00'0 0.0
2014-Nov-19 13:32N 29°56' W 090°00'0 0.0
2014-Nov-19 12:33N 29°56' W 090°00'0 0.0
2014-Nov-19 11:34N 29°56' W 090°00'0 0.0
2014-Nov-19 10:31N 29°56' W 090°00'0 0.0
2014-Nov-19 09:31N 29°56' W 090°00'0 0.0
2014-Nov-19 08:32N 29°56' W 090°00'0 0.0
2014-Nov-19 07:22N 29°56' W 090°00'0 0.0
2014-Nov-18 11:29N 29°56' W 090°00'0 0.0
2014-Nov-18 10:28N 29°56' W 090°00'0 0.0
2014-Nov-18 09:07N 29°56' W 090°00'0 0.0
2014-Nov-18 08:30N 29°56' W 090°00'0 0.0
2014-Nov-18 07:30N 29°56' W 090°00'0 0.0
2014-Nov-18 06:31N 29°56' W 090°00'0 0.1
2014-Nov-18 05:33N 29°56' W 090°01'2 2.3
2014-Nov-18 04:30N 29°57' W 090°03'0 0.0
2014-Nov-18 03:33N 29°57' W 090°03'0 0.0
2014-Nov-18 02:33N 29°57' W 090°03'0 0.0
2014-Nov-18 01:27N 29°57' W 090°03'2 2.3
2014-Nov-18 00:30N 29°57' W 090°01'2 2.3
2014-Nov-17 23:33N 29°56' W 090°03'4 4.4
2014-Nov-17 22:32N 29°55' W 090°08'0 0.0
2014-Nov-17 21:33N 29°55' W 090°08'0 0.0
2014-Nov-17 20:31N 29°55' W 090°08'0 0.0
2014-Nov-17 19:31N 29°55' W 090°08'7 0.6
2014-Nov-17 07:20N 29°56' W 090°00'0 0.0
2014-Nov-17 05:31N 29°56' W 090°00'0 0.0
2014-Nov-17 04:31N 29°56' W 090°00'0 0.0
2014-Nov-17 03:33N 29°56' W 090°00'0 0.0
2014-Nov-17 02:30N 29°56' W 090°00'0 0.0
2014-Nov-17 01:33N 29°56' W 090°00'0 0.0
2014-Nov-17 00:33N 29°56' W 090°00'0 0.0
2014-Nov-16 23:33N 29°56' W 090°00'0 0.0
2014-Nov-16 22:32N 29°56' W 090°00'0 0.0
2014-Nov-16 21:33N 29°56' W 090°00'0 0.2
2014-Nov-16 20:32N 29°56' W 090°00'0 0.0
2014-Nov-16 19:32N 29°56' W 090°00'0 0.0
2014-Nov-16 18:30N 29°56' W 090°00'0 0.0
2014-Nov-16 09:27N 29°56' W 090°00'0 0.0
2014-Nov-16 08:27N 29°56' W 090°00'0 0.0
2014-Nov-16 07:26N 29°56' W 090°00'0 0.0
2014-Nov-16 06:21N 29°56' W 090°00'0 0.0
2014-Nov-16 05:31N 29°56' W 090°00'0 0.0
2014-Nov-16 04:27N 29°56' W 090°00'0 0.0
2014-Nov-16 03:31N 29°56' W 090°00'0 0.0
2014-Nov-16 02:31N 29°56' W 090°00'0 0.0
2014-Nov-16 01:32N 29°56' W 090°00'3 0.1
2014-Nov-15 06:06N 29°55' W 089°58'0 0.0
2014-Nov-15 04:23N 29°55' W 089°58'0 0.0
2014-Nov-15 03:23N 29°55' W 089°58'0 0.0
2014-Nov-15 02:32N 29°55' W 089°58'4 3.8
2014-Nov-15 01:32N 29°57' W 090°01'6 5.9
2014-Nov-15 00:33N 29°54' W 090°07'3 2.1
2014-Nov-14 23:21N 29°57' W 090°08'3 3.2
2014-Nov-14 22:32N 29°54' W 090°07'0 0.3
2014-Nov-14 21:28N 29°54' W 090°07'0 0.0
2014-Nov-14 20:12N 29°54' W 090°07'0 0.0
2014-Nov-14 19:06N 29°54' W 090°07'0 0.0
2014-Nov-14 18:33N 29°54' W 090°07'7 0.3
2014-Nov-13 19:32N 29°55' W 089°59'8 0.9
2014-Nov-13 11:27N 29°49' W 090°04'53 3.3
2014-Nov-12 19:33N 29°37' W 091°03'6 5.9
2014-Nov-12 18:33N 29°41' W 091°09'5 5.5
2014-Nov-12 17:33N 29°39' W 091°15'6 5.8
2014-Nov-12 16:33N 29°39' W 091°21'185 3.6
2014-Nov-10 13:11N 29°23' W 094°53'  
Track history (hours):
 
Tides and Currents Weather Stations Pressure Air Temp Water Temp Dewpoint Dewpoint Depression Visibility Wind Speed Wind Dir Waves Ship Positions

M/V Alton St. Amant

Owner: The Barge Investment Group Five, L.L.C., Harahan, LA. More information available from US FCC via Universal Licensing System and Coast Guard Vessel Documentation Center.

Last reported at 2014-Nov-19 20:24 UTC. Time now 2014-Nov-25 00:37 UTC.
Position N 29°55' W 090°07'.

Length 25 m; draft 2.9 m.

Type: Towing. MMSI: 367395270.

Date/timePositionNaut miles runAvg speedWind from/ knotsBaromVisibWave heightAir tempDewpointWater temp
2014-Nov-19 20:24N 29°55' W 090°07'4 4.4
2014-Nov-19 19:32N 29°57' W 090°04'3 2.5
2014-Nov-19 18:25N 29°56' W 090°00'0 0.0
2014-Nov-19 17:31N 29°56' W 090°00'0 0.0
2014-Nov-19 16:31N 29°56' W 090°00'0 0.0
2014-Nov-19 15:32N 29°56' W 090°00'0 0.0
2014-Nov-19 14:33N 29°56' W 090°00'0 0.0
2014-Nov-19 13:32N 29°56' W 090°00'0 0.0
2014-Nov-19 12:33N 29°56' W 090°00'0 0.0
2014-Nov-19 11:34N 29°56' W 090°00'0 0.0
2014-Nov-19 10:31N 29°56' W 090°00'0 0.0
2014-Nov-19 09:31N 29°56' W 090°00'0 0.0
2014-Nov-19 08:32N 29°56' W 090°00'0 0.0
2014-Nov-19 07:22N 29°56' W 090°00'0 0.0
2014-Nov-18 11:29N 29°56' W 090°00'0 0.0
2014-Nov-18 10:28N 29°56' W 090°00'0 0.0
2014-Nov-18 09:07N 29°56' W 090°00'0 0.0
2014-Nov-18 08:30N 29°56' W 090°00'0 0.0
2014-Nov-18 07:30N 29°56' W 090°00'0 0.0
2014-Nov-18 06:31N 29°56' W 090°00'0 0.1
2014-Nov-18 05:33N 29°56' W 090°01'2 2.3
2014-Nov-18 04:30N 29°57' W 090°03'0 0.0
2014-Nov-18 03:33N 29°57' W 090°03'0 0.0
2014-Nov-18 02:33N 29°57' W 090°03'0 0.0
2014-Nov-18 01:27N 29°57' W 090°03'2 2.3
2014-Nov-18 00:30N 29°57' W 090°01'2 2.3
2014-Nov-17 23:33N 29°56' W 090°03'4 4.4
2014-Nov-17 22:32N 29°55' W 090°08'0 0.0
2014-Nov-17 21:33N 29°55' W 090°08'0 0.0
2014-Nov-17 20:31N 29°55' W 090°08'0 0.0
2014-Nov-17 19:31N 29°55' W 090°08'7 0.6
2014-Nov-17 07:20N 29°56' W 090°00'0 0.0
2014-Nov-17 05:31N 29°56' W 090°00'0 0.0
2014-Nov-17 04:31N 29°56' W 090°00'0 0.0
2014-Nov-17 03:33N 29°56' W 090°00'0 0.0
2014-Nov-17 02:30N 29°56' W 090°00'0 0.0
2014-Nov-17 01:33N 29°56' W 090°00'0 0.0
2014-Nov-17 00:33N 29°56' W 090°00'0 0.0
2014-Nov-16 23:33N 29°56' W 090°00'0 0.0
2014-Nov-16 22:32N 29°56' W 090°00'0 0.0
2014-Nov-16 21:33N 29°56' W 090°00'0 0.2
2014-Nov-16 20:32N 29°56' W 090°00'0 0.0
2014-Nov-16 19:32N 29°56' W 090°00'0 0.0
2014-Nov-16 18:30N 29°56' W 090°00'0 0.0
2014-Nov-16 09:27N 29°56' W 090°00'0 0.0
2014-Nov-16 08:27N 29°56' W 090°00'0 0.0
2014-Nov-16 07:26N 29°56' W 090°00'0 0.0
2014-Nov-16 06:21N 29°56' W 090°00'0 0.0
2014-Nov-16 05:31N 29°56' W 090°00'0 0.0
2014-Nov-16 04:27N 29°56' W 090°00'0 0.0
2014-Nov-16 03:31N 29°56' W 090°00'0 0.0
2014-Nov-16 02:31N 29°56' W 090°00'0 0.0
2014-Nov-16 01:32N 29°56' W 090°00'3 0.1
2014-Nov-15 06:06N 29°55' W 089°58'0 0.0
2014-Nov-15 04:23N 29°55' W 089°58'0 0.0
2014-Nov-15 03:23N 29°55' W 089°58'0 0.0
2014-Nov-15 02:32N 29°55' W 089°58'4 3.8
2014-Nov-15 01:32N 29°57' W 090°01'6 5.9
2014-Nov-15 00:33N 29°54' W 090°07'3 2.1
2014-Nov-14 23:21N 29°57' W 090°08'3 3.2
2014-Nov-14 22:32N 29°54' W 090°07'0 0.3
2014-Nov-14 21:28N 29°54' W 090°07'0 0.0
2014-Nov-14 20:12N 29°54' W 090°07'0 0.0
2014-Nov-14 19:06N 29°54' W 090°07'0 0.0
2014-Nov-14 18:33N 29°54' W 090°07'7 0.3
2014-Nov-13 19:32N 29°55' W 089°59'8 0.9
2014-Nov-13 11:27N 29°49' W 090°04'53 3.3
2014-Nov-12 19:33N 29°37' W 091°03'6 5.9
2014-Nov-12 18:33N 29°41' W 091°09'5 5.5
2014-Nov-12 17:33N 29°39' W 091°15'6 5.8
2014-Nov-12 16:33N 29°39' W 091°21'185 3.6
2014-Nov-10 13:11N 29°23' W 094°53'  

Dump ship's entire track history